createdAt,value
2019-03-17T00:00:10.294Z,11.20
2019-03-17T00:02:38.179Z,11.00
2019-03-17T00:05:06.862Z,11.00
2019-03-17T00:07:35.370Z,10.90
2019-03-17T00:10:04.053Z,11.00
2019-03-17T00:12:32.558Z,10.90
2019-03-17T00:15:05.556Z,10.90
2019-03-17T00:17:31.523Z,10.90
2019-03-17T00:20:00.099Z,10.90
2019-03-17T00:22:28.653Z,10.90
2019-03-17T00:25:08.590Z,10.80
2019-03-17T00:27:27.447Z,10.70
2019-03-17T00:29:56.135Z,10.70
2019-03-17T00:32:24.638Z,10.80
2019-03-17T00:34:53.330Z,10.80
2019-03-17T00:37:21.989Z,10.80
2019-03-17T00:39:50.630Z,10.70
2019-03-17T00:42:19.314Z,10.70
2019-03-17T00:44:47.895Z,10.60
2019-03-17T00:47:16.590Z,10.60
2019-03-17T00:49:45.229Z,10.70
2019-03-17T00:52:13.873Z,10.70
2019-03-17T00:54:42.549Z,10.70
2019-03-17T00:57:11.278Z,10.70
2019-03-17T00:59:40.112Z,10.60
2019-03-17T01:02:09.140Z,10.60
2019-03-17T01:04:38.507Z,10.60
2019-03-17T01:07:07.186Z,10.50
2019-03-17T01:09:36.516Z,10.40
2019-03-17T01:12:05.195Z,10.40
2019-03-17T01:14:33.850Z,10.40
2019-03-17T01:17:02.462Z,10.40
2019-03-17T01:19:31.037Z,10.40
2019-03-17T01:21:59.756Z,10.40
2019-03-17T01:24:28.466Z,10.40
2019-03-17T01:26:57.120Z,10.50
2019-03-17T01:29:25.831Z,10.20
2019-03-17T01:31:54.394Z,10.20
2019-03-17T01:34:24.461Z,10.20
2019-03-17T01:36:53.156Z,10.40
2019-03-17T01:39:21.810Z,10.50
2019-03-17T01:41:50.505Z,10.60
2019-03-17T01:44:19.152Z,10.60
2019-03-17T01:46:47.803Z,10.60
2019-03-17T01:49:16.491Z,10.60
2019-03-17T01:51:45.135Z,10.70
2019-03-17T01:54:13.852Z,10.70
2019-03-17T01:56:42.502Z,10.90
2019-03-17T01:59:11.145Z,10.90
2019-03-17T02:01:39.827Z,10.80
2019-03-17T02:04:08.460Z,10.80
2019-03-17T02:06:37.140Z,10.90
2019-03-17T02:09:07.589Z,11.10
2019-03-17T02:11:36.252Z,11.00
2019-03-17T02:14:04.915Z,10.90
2019-03-17T02:16:33.494Z,10.80
2019-03-17T02:19:02.208Z,10.80
2019-03-17T02:21:30.781Z,10.70
2019-03-17T02:23:59.339Z,10.70
2019-03-17T02:26:28.020Z,10.60
2019-03-17T02:28:56.582Z,10.60
2019-03-17T02:31:25.196Z,10.60
2019-03-17T02:33:53.782Z,10.60
2019-03-17T02:36:22.436Z,10.50
2019-03-17T02:38:52.954Z,10.60
2019-03-17T02:41:21.578Z,10.50
2019-03-17T02:43:50.202Z,10.40
2019-03-17T02:46:18.987Z,10.40
2019-03-17T02:48:47.551Z,10.40
2019-03-17T02:51:16.260Z,10.40
2019-03-17T02:53:44.835Z,10.40
2019-03-17T02:56:13.480Z,10.40
2019-03-17T02:58:42.154Z,10.40
2019-03-17T03:01:10.810Z,10.40
2019-03-17T03:03:39.501Z,10.40
2019-03-17T03:06:08.091Z,10.30
2019-03-17T03:08:36.734Z,10.30
2019-03-17T03:11:07.366Z,10.30
2019-03-17T03:13:35.925Z,10.20
2019-03-17T03:16:05.843Z,10.20
2019-03-17T03:18:35.002Z,10.20
2019-03-17T03:21:03.528Z,10.30
2019-03-17T03:23:32.130Z,10.10
2019-03-17T03:26:00.702Z,10.00
2019-03-17T03:28:29.560Z,10.00
2019-03-17T03:30:58.221Z,10.00
2019-03-17T03:33:26.801Z,10.10
2019-03-17T03:36:10.051Z,10.10
2019-03-17T03:38:25.715Z,10.10
2019-03-17T03:40:54.353Z,10.20
2019-03-17T03:43:23.002Z,10.10
2019-03-17T03:45:51.636Z,10.00
2019-03-17T03:48:20.239Z,9.90
2019-03-17T03:50:48.826Z,9.70
2019-03-17T03:53:17.487Z,9.70
2019-03-17T03:55:46.145Z,9.70
2019-03-17T03:58:14.838Z,9.80
2019-03-17T04:00:43.679Z,9.80
2019-03-17T04:03:12.322Z,10.00
2019-03-17T04:05:40.935Z,10.10
2019-03-17T04:08:09.505Z,10.00
2019-03-17T04:10:40.031Z,9.90
2019-03-17T04:13:08.584Z,9.90
2019-03-17T04:15:37.217Z,10.10
2019-03-17T04:18:05.888Z,10.10
2019-03-17T04:20:34.540Z,10.00
2019-03-17T04:23:03.446Z,10.10
2019-03-17T04:25:33.678Z,10.10
2019-03-17T04:28:02.328Z,10.20
2019-03-17T04:30:30.936Z,10.20
2019-03-17T04:32:59.579Z,10.20
2019-03-17T04:35:28.282Z,10.00
2019-03-17T04:37:56.848Z,10.00
2019-03-17T04:40:25.430Z,9.80
2019-03-17T04:42:54.098Z,9.60
2019-03-17T04:45:22.760Z,9.40
2019-03-17T04:47:51.361Z,9.60
2019-03-17T04:50:20.014Z,9.60
2019-03-17T04:52:48.645Z,9.60
2019-03-17T04:55:17.318Z,9.50
2019-03-17T04:57:45.975Z,9.50
2019-03-17T05:00:14.520Z,9.30
2019-03-17T05:02:45.015Z,9.20
2019-03-17T05:05:14.520Z,9.20
2019-03-17T05:07:43.041Z,9.20
2019-03-17T05:10:11.682Z,9.20
2019-03-17T05:12:40.284Z,9.40
2019-03-17T05:15:10.736Z,9.50
2019-03-17T05:17:41.406Z,9.60
2019-03-17T05:20:11.628Z,9.70
2019-03-17T05:22:40.125Z,9.70
2019-03-17T05:25:08.840Z,9.70
2019-03-17T05:27:37.478Z,9.70
2019-03-17T05:30:09.024Z,9.60
2019-03-17T05:32:37.696Z,9.70
2019-03-17T05:35:07.030Z,9.70
2019-03-17T05:37:40.092Z,9.70
2019-03-17T05:40:10.275Z,9.70
2019-03-17T05:42:40.651Z,9.70
2019-03-17T05:45:09.127Z,9.70
2019-03-17T05:47:37.761Z,9.60
2019-03-17T05:50:08.352Z,9.70
2019-03-17T05:52:36.917Z,9.70
2019-03-17T05:55:08.142Z,9.70
2019-03-17T05:57:36.753Z,9.70
2019-03-17T06:00:11.386Z,9.80
2019-03-17T06:02:40.162Z,10.00
2019-03-17T06:05:09.100Z,10.00
2019-03-17T06:07:37.776Z,10.00
2019-03-17T06:10:07.921Z,10.10
2019-03-17T06:12:36.479Z,10.40
2019-03-17T06:15:08.427Z,10.90
2019-03-17T06:17:37.074Z,11.30
2019-03-17T06:20:07.967Z,11.70
2019-03-17T06:22:36.601Z,12.20
2019-03-17T06:25:07.766Z,12.60
2019-03-17T06:27:36.433Z,12.80
2019-03-17T06:30:10.693Z,13.20
2019-03-17T06:32:39.288Z,13.30
2019-03-17T06:35:07.947Z,13.50
2019-03-17T06:37:36.607Z,14.00
2019-03-17T06:40:14.943Z,14.40
2019-03-17T06:42:43.577Z,14.80
2019-03-17T06:45:12.271Z,15.10
2019-03-17T06:47:40.927Z,15.30
2019-03-17T06:50:16.913Z,15.70
2019-03-17T06:52:45.570Z,16.00
2019-03-17T06:55:16.210Z,16.50
2019-03-17T06:57:44.898Z,16.60
2019-03-17T07:00:14.544Z,17.00
2019-03-17T07:02:43.242Z,17.00
2019-03-17T07:05:11.879Z,17.30
2019-03-17T07:07:44.330Z,17.70
2019-03-17T07:10:11.493Z,18.70
2019-03-17T07:12:40.069Z,18.70
2019-03-17T07:15:11.253Z,18.80
2019-03-17T07:17:39.898Z,18.90
2019-03-17T07:20:13.811Z,19.30
2019-03-17T07:22:42.427Z,19.40
2019-03-17T07:25:11.095Z,19.50
2019-03-17T07:27:39.816Z,19.70
2019-03-17T07:30:16.266Z,20.00
2019-03-17T07:32:44.930Z,20.40
2019-03-17T07:35:13.537Z,20.70
2019-03-17T07:37:42.119Z,20.90
2019-03-17T07:40:13.207Z,21.10
2019-03-17T07:42:41.872Z,21.50
2019-03-17T07:45:11.792Z,21.90
2019-03-17T07:47:40.431Z,21.70
2019-03-17T07:50:12.194Z,21.80
2019-03-17T07:52:40.861Z,22.00
2019-03-17T07:55:10.442Z,22.40
2019-03-17T07:57:39.137Z,22.50
2019-03-17T08:00:12.123Z,23.50
2019-03-17T08:02:44.726Z,23.50
2019-03-17T08:05:18.388Z,24.00
2019-03-17T08:07:47.038Z,24.20
2019-03-17T08:10:16.704Z,24.30
2019-03-17T08:12:48.156Z,24.40
2019-03-17T08:15:16.837Z,24.30
2019-03-17T08:17:45.423Z,24.40
2019-03-17T08:20:14.564Z,24.60
2019-03-17T08:22:43.238Z,24.30
2019-03-17T08:25:12.289Z,25.00
2019-03-17T08:27:40.992Z,25.10
2019-03-17T08:30:12.688Z,25.10
2019-03-17T08:32:41.597Z,24.60
2019-03-17T08:35:10.938Z,25.10
2019-03-17T08:37:39.603Z,25.30
2019-03-17T08:40:16.332Z,25.80
2019-03-17T08:42:44.936Z,25.90
2019-03-17T08:45:14.345Z,25.80
2019-03-17T08:47:42.997Z,25.90
2019-03-17T08:50:13.773Z,26.00
2019-03-17T08:52:42.445Z,26.50
2019-03-17T08:55:11.429Z,26.20
2019-03-17T08:57:40.115Z,26.40
2019-03-17T09:00:19.328Z,26.20
2019-03-17T09:02:48.023Z,26.60
2019-03-17T09:05:36.053Z,27.10
2019-03-17T09:08:04.732Z,27.30
2019-03-17T09:10:33.369Z,27.40
2019-03-17T09:13:04.286Z,27.20
2019-03-17T09:15:32.376Z,27.60
2019-03-17T09:18:01.033Z,26.80
2019-03-17T09:20:29.705Z,26.00
2019-03-17T09:22:58.357Z,25.60
2019-03-17T09:25:27.040Z,25.30
2019-03-17T09:27:55.672Z,25.70
2019-03-17T09:30:24.322Z,25.50
2019-03-17T09:32:52.921Z,25.60
2019-03-17T09:35:21.502Z,25.60
2019-03-17T09:37:50.213Z,25.80
2019-03-17T09:40:19.146Z,26.90
2019-03-17T09:42:47.813Z,26.30
2019-03-17T09:45:16.606Z,26.10
2019-03-17T09:47:45.245Z,27.10
2019-03-17T09:50:20.753Z,27.00
2019-03-17T09:52:49.403Z,27.00
2019-03-17T09:55:18.056Z,26.30
2019-03-17T09:57:46.736Z,25.70
2019-03-17T10:00:22.427Z,25.40
2019-03-17T10:02:51.041Z,25.30
2019-03-17T10:05:19.671Z,25.60
2019-03-17T10:07:48.307Z,25.40
2019-03-17T10:10:18.492Z,25.40
2019-03-17T10:12:47.147Z,25.50
2019-03-17T10:15:17.316Z,25.70
2019-03-17T10:17:45.948Z,24.70
2019-03-17T10:20:19.675Z,24.70
2019-03-17T10:22:48.307Z,24.90
2019-03-17T10:25:16.880Z,24.00
2019-03-17T10:27:45.487Z,23.40
2019-03-17T10:30:18.313Z,23.70
2019-03-17T10:32:46.930Z,24.70
2019-03-17T10:35:15.577Z,26.10
2019-03-17T10:37:44.143Z,26.20
2019-03-17T10:40:18.471Z,25.80
2019-03-17T10:42:47.125Z,24.40
2019-03-17T10:45:15.802Z,24.70
2019-03-17T10:47:44.439Z,24.80
2019-03-17T10:50:15.232Z,24.00
2019-03-17T10:52:43.862Z,23.40
2019-03-17T10:55:12.430Z,22.60
2019-03-17T10:57:41.081Z,21.40
2019-03-17T11:00:20.088Z,20.70
2019-03-17T11:02:48.731Z,20.00
2019-03-17T11:05:17.417Z,19.40
2019-03-17T11:07:45.911Z,19.10
2019-03-17T11:10:14.854Z,18.90
2019-03-17T11:12:43.541Z,18.70
2019-03-17T11:15:17.091Z,18.70
2019-03-17T11:17:45.769Z,18.50
2019-03-17T11:20:14.805Z,18.40
2019-03-17T11:22:43.480Z,18.40
2019-03-17T11:25:20.097Z,18.20
2019-03-17T11:27:48.819Z,18.50
2019-03-17T11:30:18.744Z,19.40
2019-03-17T11:32:47.663Z,21.10
2019-03-17T11:35:16.634Z,21.50
2019-03-17T11:37:45.628Z,21.30
2019-03-17T11:40:25.918Z,20.90
2019-03-17T11:42:55.503Z,20.40
2019-03-17T11:45:24.475Z,20.10
2019-03-17T11:47:53.467Z,20.10
2019-03-17T11:50:22.567Z,20.40
2019-03-17T11:52:51.316Z,21.00
2019-03-17T11:55:19.967Z,22.00
2019-03-17T11:57:48.536Z,22.80
2019-03-17T12:00:19.573Z,23.20
2019-03-17T12:02:49.779Z,23.60
2019-03-17T12:05:18.494Z,23.10
2019-03-17T12:07:48.929Z,23.20
2019-03-17T12:10:23.629Z,23.60
2019-03-17T12:12:52.285Z,24.00
2019-03-17T12:15:35.128Z,24.20
2019-03-17T12:18:03.779Z,24.10
2019-03-17T12:20:32.426Z,24.10
2019-03-17T12:23:01.033Z,23.60
2019-03-17T12:25:29.516Z,23.00
2019-03-17T12:28:04.405Z,22.10
2019-03-17T12:30:29.020Z,21.40
2019-03-17T12:32:57.663Z,21.10
2019-03-17T12:35:26.278Z,20.90
2019-03-17T12:37:54.925Z,20.80
2019-03-17T12:40:23.561Z,20.80
2019-03-17T12:42:52.217Z,20.70
2019-03-17T12:45:20.932Z,20.80
2019-03-17T12:47:49.642Z,21.00
2019-03-17T12:50:19.993Z,20.90
2019-03-17T12:52:48.682Z,20.80
2019-03-17T12:55:17.329Z,20.70
2019-03-17T12:57:45.892Z,20.40
2019-03-17T13:00:19.592Z,20.00
2019-03-17T13:02:48.287Z,19.60
2019-03-17T13:05:16.919Z,19.40
2019-03-17T13:07:45.534Z,19.60
2019-03-17T13:10:16.746Z,19.70
2019-03-17T13:12:45.528Z,19.80
2019-03-17T13:15:14.141Z,20.00
2019-03-17T13:17:42.654Z,20.10
2019-03-17T13:20:13.425Z,20.00
2019-03-17T13:22:42.114Z,19.80
2019-03-17T13:25:11.650Z,19.60
2019-03-17T13:27:40.343Z,19.50
2019-03-17T13:30:17.026Z,19.40
2019-03-17T13:32:45.726Z,19.40
2019-03-17T13:35:14.370Z,19.40
2019-03-17T13:37:42.936Z,19.40
2019-03-17T13:40:28.232Z,19.40
2019-03-17T13:42:47.014Z,19.30
2019-03-17T13:45:15.713Z,19.30
2019-03-17T13:47:44.354Z,19.30
2019-03-17T13:50:15.149Z,19.30
2019-03-17T13:52:43.783Z,19.30
2019-03-17T13:55:12.369Z,19.60
2019-03-17T13:57:43.072Z,19.80
2019-03-17T14:00:15.819Z,20.00
2019-03-17T14:02:44.390Z,20.40
2019-03-17T14:05:13.107Z,20.70
2019-03-17T14:07:41.772Z,20.50
2019-03-17T14:10:15.371Z,20.20
2019-03-17T14:12:44.041Z,19.80
2019-03-17T14:15:14.629Z,19.40
2019-03-17T14:17:43.219Z,19.20
2019-03-17T14:20:20.856Z,19.10
2019-03-17T14:22:49.834Z,19.10
2019-03-17T14:25:24.506Z,19.00
2019-03-17T14:27:53.178Z,18.80
2019-03-17T14:30:21.810Z,18.80
2019-03-17T14:32:50.483Z,18.80
2019-03-17T14:35:21.491Z,18.80
2019-03-17T14:37:49.460Z,18.80
2019-03-17T14:40:18.034Z,18.90
2019-03-17T14:42:50.751Z,19.20
2019-03-17T14:45:19.419Z,19.30
2019-03-17T14:47:48.052Z,19.20
2019-03-17T14:50:21.739Z,19.10
2019-03-17T14:52:50.402Z,19.10
2019-03-17T14:55:19.049Z,19.00
2019-03-17T14:57:47.717Z,18.90
2019-03-17T15:00:21.650Z,18.90
2019-03-17T15:02:50.320Z,18.70
2019-03-17T15:05:18.983Z,18.60
2019-03-17T15:07:47.621Z,18.50
2019-03-17T15:10:20.422Z,18.50
2019-03-17T15:12:49.056Z,18.50
2019-03-17T15:15:18.997Z,18.40
2019-03-17T15:17:47.710Z,18.30
2019-03-17T15:20:22.706Z,18.20
2019-03-17T15:22:51.367Z,18.20
2019-03-17T15:25:19.958Z,18.10
2019-03-17T15:27:48.616Z,18.10
2019-03-17T15:30:28.694Z,18.10
2019-03-17T15:32:57.328Z,18.10
2019-03-17T15:35:26.044Z,18.00
2019-03-17T15:37:54.705Z,18.00
2019-03-17T15:40:23.282Z,18.20
2019-03-17T15:42:51.989Z,18.00
2019-03-17T15:45:21.713Z,18.00
2019-03-17T15:47:50.414Z,18.00
2019-03-17T15:50:24.392Z,17.80
2019-03-17T15:52:52.961Z,17.80
2019-03-17T15:55:21.652Z,17.70
2019-03-17T15:57:50.308Z,17.70
2019-03-17T16:00:26.038Z,17.60
2019-03-17T16:02:53.230Z,17.50
2019-03-17T16:05:21.892Z,17.40
2019-03-17T16:07:50.492Z,17.30
2019-03-17T16:10:23.869Z,17.30
2019-03-17T16:12:52.568Z,17.30
2019-03-17T16:15:21.185Z,17.30
2019-03-17T16:17:49.868Z,17.20
2019-03-17T16:20:25.124Z,17.20
2019-03-17T16:22:53.774Z,17.10
2019-03-17T16:25:36.843Z,17.10
2019-03-17T16:28:05.475Z,17.10
2019-03-17T16:30:34.112Z,17.00
2019-03-17T16:33:02.732Z,17.10
2019-03-17T16:35:31.377Z,17.00
2019-03-17T16:38:00.057Z,17.10
2019-03-17T16:40:30.499Z,17.00
2019-03-17T16:42:59.142Z,17.00
2019-03-17T16:45:27.829Z,17.00
2019-03-17T16:47:56.466Z,17.00
2019-03-17T16:50:25.188Z,17.00
2019-03-17T16:52:53.701Z,17.00
2019-03-17T16:55:22.363Z,16.90
2019-03-17T16:57:51.038Z,16.90
2019-03-17T17:00:21.561Z,16.90
2019-03-17T17:02:50.238Z,16.90
2019-03-17T17:05:26.206Z,16.80
2019-03-17T17:07:54.982Z,16.80
2019-03-17T17:10:30.617Z,16.70
2019-03-17T17:12:59.317Z,16.70
2019-03-17T17:15:30.559Z,16.80
2019-03-17T17:17:59.253Z,16.60
2019-03-17T17:20:32.824Z,16.60
2019-03-17T17:23:02.723Z,16.50
2019-03-17T17:25:31.322Z,16.50
2019-03-17T17:27:59.981Z,16.50
2019-03-17T17:30:28.680Z,16.40
2019-03-17T17:32:57.331Z,16.40
2019-03-17T17:35:25.966Z,16.30
2019-03-17T17:37:54.650Z,16.30
2019-03-17T17:40:25.454Z,16.30
2019-03-17T17:42:54.151Z,16.30
2019-03-17T17:45:24.043Z,16.30
2019-03-17T17:47:52.661Z,16.20
2019-03-17T17:50:23.795Z,16.20
2019-03-17T17:52:52.455Z,16.20
2019-03-17T17:55:21.160Z,16.20
2019-03-17T17:57:52.480Z,16.20
2019-03-17T18:00:37.519Z,16.20
2019-03-17T18:03:06.131Z,16.20
2019-03-17T18:05:34.776Z,16.20
2019-03-17T18:08:03.459Z,16.10
2019-03-17T18:10:32.105Z,16.10
2019-03-17T18:13:00.669Z,16.10
2019-03-17T18:15:35.260Z,16.10
2019-03-17T18:18:03.915Z,16.00
2019-03-17T18:20:32.525Z,16.10
2019-03-17T18:23:01.170Z,16.10
2019-03-17T18:25:29.854Z,16.00
2019-03-17T18:27:58.504Z,16.00
2019-03-17T18:30:27.162Z,15.90
2019-03-17T18:32:55.830Z,15.90
2019-03-17T18:35:24.532Z,15.90
2019-03-17T18:37:53.208Z,15.90
2019-03-17T18:40:22.438Z,16.00
2019-03-17T18:42:51.081Z,16.10
2019-03-17T18:45:28.406Z,16.20
2019-03-17T18:47:57.802Z,16.20
2019-03-17T18:50:27.043Z,16.20
2019-03-17T18:52:55.555Z,16.10
2019-03-17T18:55:24.198Z,16.00
2019-03-17T18:57:54.736Z,15.90
2019-03-17T19:00:25.385Z,15.90
2019-03-17T19:02:54.104Z,15.90
2019-03-17T19:05:22.742Z,15.90
2019-03-17T19:07:51.367Z,15.90
2019-03-17T19:10:21.036Z,16.00
2019-03-17T19:12:49.612Z,16.00
2019-03-17T19:15:22.405Z,16.00
2019-03-17T19:17:50.980Z,16.00
2019-03-17T19:20:21.724Z,16.00
2019-03-17T19:22:50.317Z,16.00
2019-03-17T19:25:26.012Z,15.90
2019-03-17T19:27:54.697Z,15.90
2019-03-17T19:30:23.676Z,15.80
2019-03-17T19:32:53.070Z,15.70
2019-03-17T19:35:21.727Z,15.60
2019-03-17T19:37:50.419Z,15.50
2019-03-17T19:40:20.354Z,15.50
2019-03-17T19:42:58.765Z,15.40
2019-03-17T19:45:19.152Z,15.30
2019-03-17T19:47:47.840Z,15.20
2019-03-17T19:50:18.100Z,15.20
2019-03-17T19:52:46.810Z,15.20
2019-03-17T19:55:15.391Z,15.30
2019-03-17T19:57:44.036Z,15.20
2019-03-17T20:00:19.687Z,15.10
2019-03-17T20:02:48.323Z,14.90
2019-03-17T20:05:16.961Z,14.90
2019-03-17T20:07:45.620Z,14.80
2019-03-17T20:10:28.225Z,14.80
2019-03-17T20:12:56.854Z,14.80
2019-03-17T20:15:25.416Z,14.80
2019-03-17T20:17:54.106Z,14.80
2019-03-17T20:20:22.749Z,14.90
2019-03-17T20:22:51.484Z,14.90
2019-03-17T20:25:20.015Z,14.80
2019-03-17T20:27:48.651Z,14.80
2019-03-17T20:30:19.226Z,14.80
2019-03-17T20:32:47.892Z,14.70
2019-03-17T20:35:16.607Z,14.60
2019-03-17T20:37:45.360Z,14.60
2019-03-17T20:40:15.213Z,14.60
2019-03-17T20:42:43.768Z,14.60
2019-03-17T20:45:13.423Z,14.60
2019-03-17T20:47:42.074Z,14.50
2019-03-17T20:50:18.546Z,14.50
2019-03-17T20:52:47.449Z,14.40
2019-03-17T20:55:16.088Z,14.40
2019-03-17T20:57:44.725Z,14.40
2019-03-17T21:00:20.042Z,14.40
2019-03-17T21:02:48.550Z,14.40
2019-03-17T21:05:17.251Z,14.40
2019-03-17T21:07:45.897Z,14.40
2019-03-17T21:10:15.664Z,14.50
2019-03-17T21:12:44.361Z,14.40
2019-03-17T21:15:17.948Z,14.40
2019-03-17T21:17:46.712Z,14.40
2019-03-17T21:20:17.134Z,14.40
2019-03-17T21:22:45.817Z,14.40
2019-03-17T21:25:14.465Z,14.40
2019-03-17T21:27:43.110Z,14.40
2019-03-17T21:30:14.906Z,14.30
2019-03-17T21:32:43.548Z,14.30
2019-03-17T21:35:12.254Z,14.30
2019-03-17T21:37:40.818Z,14.30
2019-03-17T21:40:11.429Z,14.30
2019-03-17T21:42:40.047Z,14.30
2019-03-17T21:45:10.480Z,14.30
2019-03-17T21:47:39.163Z,14.40
2019-03-17T21:50:21.048Z,14.40
2019-03-17T21:52:49.744Z,14.40
2019-03-17T21:55:18.407Z,14.40
2019-03-17T21:57:47.049Z,14.30
2019-03-17T22:00:21.351Z,14.30
2019-03-17T22:02:49.925Z,14.20
2019-03-17T22:05:18.626Z,14.20
2019-03-17T22:07:50.661Z,14.20
2019-03-17T22:10:19.441Z,14.20
2019-03-17T22:12:48.128Z,14.20
2019-03-17T22:15:17.803Z,14.20
2019-03-17T22:17:46.337Z,14.10
2019-03-17T22:20:15.477Z,14.10
2019-03-17T22:22:44.145Z,14.00
2019-03-17T22:25:16.552Z,14.10
2019-03-17T22:27:45.116Z,14.10
2019-03-17T22:30:21.233Z,14.00
2019-03-17T22:32:50.804Z,14.00
2019-03-17T22:35:19.439Z,14.10
2019-03-17T22:37:48.096Z,14.10
2019-03-17T22:40:17.827Z,14.10
2019-03-17T22:42:46.507Z,14.10
2019-03-17T22:45:16.042Z,14.00
2019-03-17T22:47:44.663Z,14.00
2019-03-17T22:50:19.362Z,14.00
2019-03-17T22:52:48.002Z,14.10
2019-03-17T22:55:16.612Z,14.10
2019-03-17T22:57:45.164Z,14.00
2019-03-17T23:00:35.257Z,14.00
2019-03-17T23:03:03.903Z,14.00
2019-03-17T23:05:32.490Z,14.00
2019-03-17T23:08:01.152Z,14.00
2019-03-17T23:10:29.722Z,14.00
2019-03-17T23:12:58.408Z,14.10
2019-03-17T23:15:27.164Z,14.00
2019-03-17T23:17:55.802Z,14.00
2019-03-17T23:20:24.476Z,14.00
2019-03-17T23:22:53.063Z,14.00
2019-03-17T23:25:21.688Z,14.10
2019-03-17T23:27:50.346Z,14.00
2019-03-17T23:30:20.378Z,14.00
2019-03-17T23:32:49.614Z,13.90
2019-03-17T23:35:18.736Z,13.90
2019-03-17T23:37:47.342Z,13.90
2019-03-17T23:40:16.968Z,13.80
2019-03-17T23:42:45.608Z,13.90
2019-03-17T23:45:14.224Z,13.90
2019-03-17T23:47:42.868Z,13.80
2019-03-17T23:50:14.914Z,13.80
2019-03-17T23:52:43.640Z,13.80
2019-03-17T23:55:13.386Z,13.80
2019-03-17T23:57:42.163Z,13.70
